Accueil
METAR-TAF:

METAR-TAF

Aéroports :

Moab, Utah, États-Unis

latitude: 38-45-36N, longitude: 109-44-41W, altitude: 1388 m

Observation

Le bulletin a été fait il y a 37 minutes, à 01:53 UTC
Vent calme
Température -2°C
Humidité 69%
Pression 1024 hPa
Visibilité: 16.1 km
Ciel clair

METAR: KCNY 170153Z AUTO 00000KT 10SM CLR M02/M07 A3023 RMK AO2 SLP275 T10221072

Heure: 19:30 (02:30 UTC)

Prévision

Le bulletin a été fait il y a 2 heures et 58 minutes, à 23:32 UTC
Prévision valable du 17 à 00 UTC au 17 à 24 UTC
Vent 6 kt de nord/nord-ouest
Visibilité: 10 km
Quelques nuages à une hauteur de 25000 ft
A partir de 17 à 0200 UTC
Vent 4 kt de direction variable
Visibilité: 10 km
Ciel clair

TAF: KCNY 162332Z 1700/1724 33006KT P6SM FEW250 FM170200 VRB04KT P6SM SKC

Observations et prévisions météorologiques de plus de 4000 aéroports (messages METAR et TAF).

Les stations disponibles sont représentées par des disques jaunes et rouges sur la carte.

Passer la souris dessus pour voir le nom de la station.

Cliquer dessus pour voir les observations et prévisions météorologiques.

Pour changer de carte: cliquez sur les boutons verts avec une croix noire pour zoomer, sur le bouton vert avec un tiret pour effectuer un zoom arrière, ou sur les flèches vertes pour les cartes adjacentes.


METAR-TAF: